Agua Escondida, Argentina
Current Conditions -  °F | °C
As of 5:00 AM on Sunday 21 Dec 2014 (Local Time) from SCIC Reporting Station
Broken Clouds Broken Clouds  
Wind Chill: 50°   Ceiling: 3400
Heat Index: 50°   Visibility: 6mi
Dew Point: 43°   Wind: 6mph
Humidity: 76%   Direction: 200°SSW
Pressure: 30.03"   Gusts: NA
Location:  35.64°S, 67.97°W
Report Text: SCIC 210800Z AUTO 20005KT 9999 BKN034 10/06 Q1017
Loading
Personal Weather Stations






























Interactive Weather Map New forecast layout! Learn more

10-Day Weather Forecast

Advertisements
Track Severe Weather on mobile